createdAt,value
2022-11-05T00:04:31.164Z,96295.22
2022-11-05T00:10:03.797Z,96293.41
2022-11-05T00:15:43.284Z,96301.63
2022-11-05T00:21:04.540Z,96303.69
2022-11-05T00:26:25.278Z,96293.16
2022-11-05T00:31:45.865Z,96292.63
2022-11-05T00:37:06.582Z,96295.75
2022-11-05T00:42:45.682Z,96308.31
2022-11-05T00:48:25.690Z,96331.84
2022-11-05T00:53:46.413Z,96328.81
2022-11-05T00:59:07.154Z,96326.13
2022-11-05T01:04:27.991Z,96341.56
2022-11-05T01:09:48.547Z,96340.31
2022-11-05T01:15:09.544Z,96348.41
2022-11-05T01:20:31.019Z,96341.56
2022-11-05T01:25:51.601Z,96344.28
2022-11-05T01:31:12.382Z,96346.34
2022-11-05T01:36:33.079Z,96358.78
2022-11-05T01:41:53.924Z,96367.69
2022-11-05T01:47:41.732Z,96389.00
2022-11-05T01:53:11.950Z,96383.38
2022-11-05T01:58:58.323Z,96392.81
2022-11-05T02:04:43.269Z,96389.00
2022-11-05T02:10:07.287Z,96392.41
2022-11-05T02:15:44.439Z,96385.31
2022-11-05T02:21:36.536Z,96410.50
2022-11-05T02:27:21.660Z,96415.38
2022-11-05T02:32:53.462Z,96413.19
2022-11-05T02:38:35.066Z,96410.34
2022-11-05T02:44:14.192Z,96406.38
2022-11-05T02:49:52.819Z,96406.22
2022-11-05T02:55:22.488Z,96417.72
2022-11-05T03:00:50.737Z,96427.97
2022-11-05T03:06:23.048Z,96433.97
2022-11-05T03:11:50.034Z,96446.84
2022-11-05T03:17:33.663Z,96446.97
2022-11-05T03:23:05.922Z,96461.22
2022-11-05T03:28:31.416Z,96472.28
2022-11-05T03:33:55.072Z,96473.66
2022-11-05T03:39:26.697Z,96484.69
2022-11-05T03:44:54.214Z,96493.59
2022-11-05T03:50:34.670Z,96493.16
2022-11-05T03:56:04.769Z,96491.97
2022-11-05T04:01:25.599Z,96493.88
2022-11-05T04:07:04.857Z,96485.38
2022-11-05T04:12:44.329Z,96504.09
2022-11-05T04:18:05.077Z,96517.66
2022-11-05T04:23:44.076Z,96520.28
2022-11-05T04:29:23.892Z,96518.09
2022-11-05T04:34:44.522Z,96531.47
2022-11-05T04:40:05.735Z,96537.06
2022-11-05T04:45:28.980Z,96533.78
2022-11-05T04:50:49.658Z,96537.47
2022-11-05T04:56:19.317Z,96539.94
2022-11-05T05:01:40.577Z,96534.44
2022-11-05T05:07:01.314Z,96525.16
2022-11-05T05:12:22.795Z,96532.03
2022-11-05T05:17:43.714Z,96532.78
2022-11-05T05:23:05.105Z,96543.88
2022-11-05T05:28:27.465Z,96544.53
2022-11-05T05:33:48.395Z,96554.91
2022-11-05T05:39:11.046Z,96552.88
2022-11-05T05:44:31.945Z,96569.38
2022-11-05T05:49:52.919Z,96565.25
2022-11-05T05:55:14.006Z,96568.34
2022-11-05T06:00:34.789Z,96583.78
2022-11-05T06:06:04.332Z,96594.81
2022-11-05T06:11:25.719Z,96597.25
2022-11-05T06:16:46.712Z,96614.19
2022-11-05T06:22:07.563Z,96616.72
2022-11-05T06:27:31.554Z,96628.47
2022-11-05T06:32:52.335Z,96642.75
2022-11-05T06:38:13.055Z,96648.88
2022-11-05T06:43:33.851Z,96667.75
2022-11-05T06:48:54.861Z,96674.38
2022-11-05T06:54:15.469Z,96678.88
2022-11-05T06:59:37.283Z,96692.28
2022-11-05T07:04:57.921Z,96689.22
2022-11-05T07:10:19.229Z,96707.97
2022-11-05T07:15:39.833Z,96712.47
2022-11-05T07:21:01.068Z,96727.09
2022-11-05T07:26:21.893Z,96745.84
2022-11-05T07:31:42.652Z,96753.31
2022-11-05T07:37:03.639Z,96768.19
2022-11-05T07:42:24.542Z,96768.56
2022-11-05T07:48:00.425Z,96779.88
2022-11-05T07:53:21.487Z,96788.75
2022-11-05T07:58:42.222Z,96787.09
2022-11-05T08:04:02.943Z,96799.97
2022-11-05T08:09:23.816Z,96806.22
2022-11-05T08:14:44.522Z,96806.88
2022-11-05T08:20:06.069Z,96805.03
2022-11-05T08:25:27.446Z,96799.06
2022-11-05T08:30:53.244Z,96794.91
2022-11-05T08:36:14.407Z,96804.34
2022-11-05T08:41:35.197Z,96809.34
2022-11-05T08:46:57.497Z,96814.03
2022-11-05T08:52:18.407Z,96817.22
2022-11-05T08:57:38.972Z,96828.19
2022-11-05T09:03:01.041Z,96835.53
2022-11-05T09:08:21.963Z,96835.91
2022-11-05T09:13:42.774Z,96841.88
2022-11-05T09:19:04.757Z,96851.03
2022-11-05T09:24:25.789Z,96860.25
2022-11-05T09:29:47.145Z,96852.72
2022-11-05T09:35:09.016Z,96858.19
2022-11-05T09:40:35.823Z,96848.97
2022-11-05T09:46:02.405Z,96847.97
2022-11-05T09:51:24.360Z,96862.56
2022-11-05T09:56:47.013Z,96865.91
2022-11-05T10:02:26.157Z,96865.66
2022-11-05T10:08:36.252Z,96871.97
2022-11-05T10:14:07.532Z,96878.69
2022-11-05T10:19:41.485Z,96876.63
2022-11-05T10:25:02.598Z,96872.81
2022-11-05T10:30:23.597Z,96880.34
2022-11-05T10:35:50.312Z,96885.69
2022-11-05T10:41:30.049Z,96893.78
2022-11-05T10:47:09.298Z,96897.50
2022-11-05T10:52:37.194Z,96896.47
2022-11-05T10:58:16.287Z,96901.66
2022-11-05T11:03:48.964Z,96903.91
2022-11-05T11:09:23.352Z,96896.75
2022-11-05T11:15:20.276Z,96890.69
2022-11-05T11:20:45.068Z,96905.66
2022-11-05T11:26:07.483Z,96905.25
2022-11-05T11:31:31.750Z,96899.06
2022-11-05T11:36:56.549Z,96901.09
2022-11-05T11:42:51.447Z,96902.59
2022-11-05T11:48:22.654Z,96902.47
2022-11-05T11:53:43.765Z,96896.28
2022-11-05T11:59:17.091Z,96913.19
2022-11-05T12:05:09.983Z,96911.28
2022-11-05T12:10:51.693Z,96914.63
2022-11-05T12:16:32.215Z,96916.25
2022-11-05T12:21:59.878Z,96916.94
2022-11-05T12:27:32.024Z,96931.50
2022-11-05T12:33:20.519Z,96926.97
2022-11-05T12:39:35.545Z,96937.25
2022-11-05T12:45:04.518Z,96935.47
2022-11-05T12:50:47.775Z,96942.50
2022-11-05T12:56:47.088Z,96947.84
2022-11-05T13:02:21.985Z,96952.38
2022-11-05T13:08:12.734Z,96959.25
2022-11-05T13:13:40.911Z,96957.41
2022-11-05T13:19:15.509Z,96958.56
2022-11-05T13:25:01.041Z,96966.38
2022-11-05T13:30:25.271Z,96977.09
2022-11-05T13:36:23.922Z,96988.31
2022-11-05T13:42:33.169Z,96978.41
2022-11-05T13:48:27.951Z,96973.38
2022-11-05T13:54:19.489Z,96985.97
2022-11-05T14:00:01.569Z,96985.72
2022-11-05T14:05:35.392Z,96982.00
2022-11-05T14:11:03.657Z,96982.19
2022-11-05T14:16:27.517Z,96982.16
2022-11-05T14:21:54.201Z,96990.50
2022-11-05T14:27:14.972Z,96994.56
2022-11-05T14:32:50.065Z,96983.16
2022-11-05T14:38:26.628Z,96999.19
2022-11-05T14:43:58.837Z,96995.34
2022-11-05T14:49:28.402Z,97018.34
2022-11-05T14:54:52.480Z,97019.50
2022-11-05T15:00:28.717Z,97022.91
2022-11-05T15:06:03.308Z,97037.44
2022-11-05T15:11:29.211Z,97040.25
2022-11-05T15:16:55.968Z,97052.75
2022-11-05T15:22:40.778Z,97049.53
2022-11-05T15:28:26.331Z,97056.50
2022-11-05T15:33:48.446Z,97049.25
2022-11-05T15:39:30.420Z,97049.69
2022-11-05T15:44:53.929Z,97054.63
2022-11-05T15:50:16.009Z,97055.44
2022-11-05T15:55:57.814Z,97061.13
2022-11-05T16:01:31.019Z,97063.63
2022-11-05T16:06:55.111Z,97067.59
2022-11-05T16:12:19.444Z,97060.69
2022-11-05T16:17:40.353Z,97067.22
2022-11-05T16:23:04.045Z,97073.31
2022-11-05T16:28:27.109Z,97080.59
2022-11-05T16:33:48.524Z,97087.06
2022-11-05T16:39:09.547Z,97094.69
2022-11-05T16:44:30.310Z,97103.53
2022-11-05T16:49:51.137Z,97101.22
2022-11-05T16:55:13.365Z,97109.56
2022-11-05T17:00:34.454Z,97113.88
2022-11-05T17:05:55.055Z,97111.06
2022-11-05T17:11:20.867Z,97112.44
2022-11-05T17:16:41.667Z,97114.94
2022-11-05T17:22:02.461Z,97112.81
2022-11-05T17:27:23.200Z,97131.59
2022-11-05T17:32:43.973Z,97138.81
2022-11-05T17:38:05.020Z,97136.06
2022-11-05T17:43:26.229Z,97142.09
2022-11-05T17:48:47.045Z,97150.16
2022-11-05T17:54:07.700Z,97155.84
2022-11-05T17:59:28.454Z,97170.13
2022-11-05T18:04:49.135Z,97172.75
2022-11-05T18:10:10.367Z,97184.31
2022-11-05T18:15:31.344Z,97191.53
2022-11-05T18:20:52.215Z,97207.84
2022-11-05T18:26:15.371Z,97202.78
2022-11-05T18:31:35.912Z,97208.19
2022-11-05T18:36:56.858Z,97217.22
2022-11-05T18:42:18.050Z,97219.47
2022-11-05T18:47:38.997Z,97219.66
2022-11-05T18:52:59.654Z,97228.63
2022-11-05T18:58:20.485Z,97227.44
2022-11-05T19:03:41.757Z,97229.81
2022-11-05T19:09:03.809Z,97232.97
2022-11-05T19:14:24.772Z,97238.63
2022-11-05T19:19:45.456Z,97240.28
2022-11-05T19:25:07.755Z,97235.88
2022-11-05T19:30:28.534Z,97237.16
2022-11-05T19:35:49.244Z,97247.63
2022-11-05T19:41:14.663Z,97239.84
2022-11-05T19:46:35.448Z,97241.88
2022-11-05T19:51:57.502Z,97241.72
2022-11-05T19:57:18.462Z,97249.69
2022-11-05T20:02:43.683Z,97260.69
2022-11-05T20:08:04.994Z,97259.50
2022-11-05T20:13:26.127Z,97273.28
2022-11-05T20:18:47.079Z,97280.13
2022-11-05T20:24:09.874Z,97269.34
2022-11-05T20:29:35.738Z,97267.13
2022-11-05T20:34:56.762Z,97264.56
2022-11-05T20:40:17.630Z,97260.50
2022-11-05T20:45:38.677Z,97274.94
2022-11-05T20:50:59.952Z,97272.53
2022-11-05T20:56:23.280Z,97271.63
2022-11-05T21:01:44.183Z,97273.78
2022-11-05T21:07:05.235Z,97275.75
2022-11-05T21:12:26.021Z,97279.28
2022-11-05T21:17:46.989Z,97281.38
2022-11-05T21:23:07.795Z,97286.06
2022-11-05T21:28:28.502Z,97288.25
2022-11-05T21:33:54.858Z,97281.19
2022-11-05T21:39:16.439Z,97280.34
2022-11-05T21:44:37.106Z,97277.53
2022-11-05T21:49:58.000Z,97273.53
2022-11-05T21:55:37.213Z,97267.94
2022-11-05T22:00:58.587Z,97275.28
2022-11-05T22:06:19.339Z,97282.13
2022-11-05T22:11:40.093Z,97281.19
2022-11-05T22:17:03.026Z,97281.28
2022-11-05T22:22:23.660Z,97271.25
2022-11-05T22:27:44.412Z,97278.69
2022-11-05T22:33:05.214Z,97274.09
2022-11-05T22:38:25.849Z,97282.06
2022-11-05T22:43:46.642Z,97285.06
2022-11-05T22:49:07.481Z,97276.34
2022-11-05T22:54:28.654Z,97275.63
2022-11-05T22:59:49.319Z,97278.72
2022-11-05T23:05:10.571Z,97284.63
2022-11-05T23:10:50.101Z,97283.28
2022-11-05T23:16:29.736Z,97289.69
2022-11-05T23:22:09.058Z,97288.56
2022-11-05T23:27:31.489Z,97288.94
2022-11-05T23:32:53.467Z,97292.94
2022-11-05T23:38:34.072Z,97300.41
2022-11-05T23:44:13.625Z,97303.09
2022-11-05T23:49:34.172Z,97300.91
2022-11-05T23:54:55.200Z,97300.41
